Tampa/MacDill AFB, Florida
Current Conditions -  °F | °C
As of 9:58 AM on Tuesday 21 Oct 2014 (Local Time) from KMCF Reporting Station
Clear Clear  
Wind Chill: 73°   Ceiling: Unl
Heat Index: 73°   Visibility: 10mi
Dew Point: 70°   Wind: 5mph
Humidity: 91%   Direction: 70°ENE
Pressure: 29.98"   Gusts: NA
Location:  27.85°N, 82.52°W
Report Text: KMCF 211358Z AUTO 07004KT 10SM CLR 23/21 A2998 RMK AO2 SLP155 T02290213
Loading
Personal Weather Stations






























Interactive Weather Map
Tropical Storm Tracking
New forecast layout! Learn more

10-Day Weather Forecast

Advertisements
Track Severe Weather on mobile